createdAt,value
2022-11-09T00:00:45.913Z,59.80
2022-11-09T00:03:14.346Z,60.28
2022-11-09T00:05:42.430Z,59.97
2022-11-09T00:08:11.912Z,60.30
2022-11-09T00:10:39.807Z,60.28
2022-11-09T00:13:09.039Z,60.19
2022-11-09T00:15:37.287Z,60.34
2022-11-09T00:18:05.056Z,60.23
2022-11-09T00:20:32.892Z,60.52
2022-11-09T00:23:00.625Z,60.55
2022-11-09T00:25:28.380Z,60.52
2022-11-09T00:27:56.141Z,60.77
2022-11-09T00:30:28.867Z,60.18
2022-11-09T00:32:56.900Z,60.17
2022-11-09T00:35:24.638Z,60.41
2022-11-09T00:37:52.422Z,60.92
2022-11-09T00:40:20.201Z,60.69
2022-11-09T00:42:47.976Z,60.71
2022-11-09T00:45:17.080Z,60.86
2022-11-09T00:47:47.159Z,60.46
2022-11-09T00:50:15.396Z,60.66
2022-11-09T00:52:43.209Z,60.53
2022-11-09T00:55:10.943Z,60.76
2022-11-09T00:57:39.373Z,60.76
2022-11-09T01:00:08.307Z,60.45
2022-11-09T01:02:36.072Z,60.67
2022-11-09T01:05:05.990Z,61.13
2022-11-09T01:07:33.729Z,60.92
2022-11-09T01:10:01.444Z,61.02
2022-11-09T01:12:29.280Z,60.93
2022-11-09T01:14:57.084Z,60.83
2022-11-09T01:17:25.044Z,61.23
2022-11-09T01:19:55.757Z,61.75
2022-11-09T01:22:25.475Z,61.93
2022-11-09T01:24:55.751Z,61.97
2022-11-09T01:27:25.074Z,61.67
2022-11-09T01:29:52.868Z,61.80
2022-11-09T01:32:20.788Z,61.92
2022-11-09T01:34:49.050Z,62.82
2022-11-09T01:37:16.839Z,63.39
2022-11-09T01:39:46.002Z,63.22
2022-11-09T01:42:13.751Z,63.18
2022-11-09T01:44:43.671Z,63.85
2022-11-09T01:47:16.010Z,63.73
2022-11-09T01:49:46.843Z,63.26
2022-11-09T01:52:19.500Z,63.39
2022-11-09T01:54:50.267Z,63.74
2022-11-09T01:57:21.319Z,63.76
2022-11-09T01:59:53.002Z,64.20
2022-11-09T02:02:21.080Z,63.88
2022-11-09T02:04:51.711Z,64.25
2022-11-09T02:07:19.688Z,64.54
2022-11-09T02:09:52.718Z,64.63
2022-11-09T02:12:20.642Z,64.19
2022-11-09T02:14:49.857Z,63.86
2022-11-09T02:17:17.784Z,63.31
2022-11-09T02:19:46.286Z,63.75
2022-11-09T02:22:15.837Z,63.98
2022-11-09T02:24:43.797Z,64.07
2022-11-09T02:27:11.608Z,63.74
2022-11-09T02:29:41.704Z,63.54
2022-11-09T02:32:12.427Z,63.54
2022-11-09T02:34:40.282Z,63.88
2022-11-09T02:37:08.255Z,63.54
2022-11-09T02:39:37.614Z,63.13
2022-11-09T02:42:10.442Z,64.41
2022-11-09T02:44:43.027Z,63.58
2022-11-09T02:47:10.777Z,63.77
2022-11-09T02:49:38.544Z,63.71
2022-11-09T02:52:06.497Z,64.05
2022-11-09T02:54:34.324Z,63.67
2022-11-09T02:57:03.683Z,63.51
2022-11-09T02:59:31.419Z,63.88
2022-11-09T03:01:59.962Z,64.19
2022-11-09T03:04:30.572Z,64.73
2022-11-09T03:06:58.868Z,64.95
2022-11-09T03:09:26.900Z,65.24
2022-11-09T03:11:54.726Z,64.93
2022-11-09T03:14:23.883Z,65.22
2022-11-09T03:16:56.007Z,65.56
2022-11-09T03:19:23.817Z,65.29
2022-11-09T03:21:53.389Z,65.57
2022-11-09T03:24:24.382Z,65.64
2022-11-09T03:26:55.824Z,65.19
2022-11-09T03:29:24.934Z,65.37
2022-11-09T03:31:52.772Z,65.32
2022-11-09T03:34:20.594Z,65.93
2022-11-09T03:36:48.443Z,65.54
2022-11-09T03:39:16.233Z,65.33
2022-11-09T03:41:43.982Z,65.05
2022-11-09T03:44:11.740Z,65.14
2022-11-09T03:46:40.889Z,65.50
2022-11-09T03:49:08.728Z,65.60
2022-11-09T03:51:36.518Z,65.52
2022-11-09T03:54:04.513Z,65.73
2022-11-09T03:56:32.254Z,65.75
2022-11-09T03:59:00.017Z,63.56
2022-11-09T04:01:27.900Z,64.46
2022-11-09T04:03:57.063Z,65.42
2022-11-09T04:06:24.763Z,64.91
2022-11-09T04:08:52.885Z,64.31
2022-11-09T04:11:20.648Z,64.12
2022-11-09T04:13:48.426Z,63.69
2022-11-09T04:16:16.200Z,63.59
2022-11-09T04:18:43.978Z,64.66
2022-11-09T04:21:13.177Z,64.44
2022-11-09T04:23:40.940Z,64.65
2022-11-09T04:26:08.770Z,63.91
2022-11-09T04:28:36.513Z,63.99
2022-11-09T04:31:04.483Z,64.08
2022-11-09T04:33:32.196Z,65.11
2022-11-09T04:36:03.395Z,65.55
2022-11-09T04:38:32.812Z,65.66
2022-11-09T04:41:04.263Z,65.13
2022-11-09T04:43:32.025Z,65.04
2022-11-09T04:46:03.123Z,65.69
2022-11-09T04:48:31.126Z,66.38
2022-11-09T04:51:02.295Z,66.42
2022-11-09T04:53:31.917Z,66.16
2022-11-09T04:55:59.809Z,65.96
2022-11-09T04:58:28.031Z,65.86
2022-11-09T05:00:56.120Z,65.62
2022-11-09T05:03:24.070Z,65.40
2022-11-09T05:05:51.870Z,65.45
2022-11-09T05:08:19.655Z,65.60
2022-11-09T05:10:48.869Z,65.85
2022-11-09T05:13:16.932Z,65.74
2022-11-09T05:15:44.888Z,65.61
2022-11-09T05:18:12.666Z,65.93
2022-11-09T05:20:40.455Z,65.58
2022-11-09T05:23:40.444Z,65.63
2022-11-09T05:26:09.577Z,64.46
2022-11-09T05:28:37.363Z,64.57
2022-11-09T05:31:05.174Z,64.35
2022-11-09T05:33:33.131Z,64.92
2022-11-09T05:36:00.949Z,65.12
2022-11-09T05:38:28.716Z,65.68
2022-11-09T05:40:56.489Z,65.59
2022-11-09T05:43:25.676Z,66.19
2022-11-09T05:45:53.448Z,65.90
2022-11-09T05:48:21.230Z,67.38
2022-11-09T05:50:49.000Z,68.33
2022-11-09T05:53:22.704Z,68.13
2022-11-09T05:55:50.663Z,69.81
2022-11-09T05:58:18.415Z,69.95
2022-11-09T06:00:47.480Z,70.11
2022-11-09T06:03:15.224Z,70.17
2022-11-09T06:05:42.944Z,68.98
2022-11-09T06:08:12.851Z,68.52
2022-11-09T06:10:40.974Z,67.80
2022-11-09T06:13:08.977Z,67.56
2022-11-09T06:15:36.801Z,68.09
2022-11-09T06:18:05.996Z,68.62
2022-11-09T06:20:34.170Z,68.57
2022-11-09T06:23:04.157Z,68.90
2022-11-09T06:25:33.465Z,68.96
2022-11-09T06:28:01.750Z,69.48
2022-11-09T06:30:29.587Z,69.78
2022-11-09T06:33:00.975Z,69.59
2022-11-09T06:35:30.400Z,70.11
2022-11-09T06:37:58.615Z,70.17
2022-11-09T06:40:26.774Z,68.34
2022-11-09T06:42:57.619Z,69.03
2022-11-09T06:45:25.549Z,67.74
2022-11-09T06:47:56.486Z,66.47
2022-11-09T06:50:24.209Z,65.93
2022-11-09T06:52:57.053Z,65.39
2022-11-09T06:55:24.790Z,65.60
2022-11-09T06:57:52.560Z,66.91
2022-11-09T07:00:21.046Z,66.41
2022-11-09T07:02:48.758Z,66.63
2022-11-09T07:05:16.707Z,66.01
2022-11-09T07:07:44.652Z,65.23
2022-11-09T07:10:14.146Z,64.40
2022-11-09T07:12:42.077Z,64.05
2022-11-09T07:15:11.460Z,64.46
2022-11-09T07:17:40.189Z,65.25
2022-11-09T07:20:09.785Z,65.78
2022-11-09T07:22:39.376Z,66.42
2022-11-09T07:25:08.244Z,66.70
2022-11-09T07:27:37.624Z,66.70
2022-11-09T07:30:06.442Z,67.27
2022-11-09T07:33:02.559Z,66.93
2022-11-09T07:35:22.323Z,66.46
2022-11-09T07:37:50.063Z,66.58
2022-11-09T07:40:17.983Z,67.17
2022-11-09T07:42:47.406Z,67.02
2022-11-09T07:45:15.149Z,67.08
2022-11-09T07:47:42.895Z,66.96
2022-11-09T07:50:11.356Z,66.67
2022-11-09T07:52:39.078Z,66.28
2022-11-09T07:55:07.825Z,66.62
2022-11-09T07:57:35.807Z,66.67
2022-11-09T08:00:05.645Z,66.86
2022-11-09T08:02:39.536Z,66.53
2022-11-09T08:05:08.395Z,66.19
2022-11-09T08:07:36.178Z,65.25
2022-11-09T08:10:04.060Z,65.63
2022-11-09T08:12:36.744Z,66.06
2022-11-09T08:15:07.775Z,65.77
2022-11-09T08:17:35.584Z,65.55
2022-11-09T08:20:03.529Z,65.52
2022-11-09T08:22:31.352Z,64.69
2022-11-09T08:24:59.115Z,64.08
2022-11-09T08:27:26.958Z,64.39
2022-11-09T08:29:54.753Z,63.48
2022-11-09T08:32:23.879Z,63.95
2022-11-09T08:34:51.656Z,64.38
2022-11-09T08:37:19.453Z,64.19
2022-11-09T08:39:47.168Z,63.88
2022-11-09T08:42:14.915Z,63.88
2022-11-09T08:44:42.651Z,63.54
2022-11-09T08:47:10.407Z,64.56
2022-11-09T08:49:39.493Z,64.24
2022-11-09T08:52:07.340Z,64.20
2022-11-09T08:54:35.082Z,64.54
2022-11-09T08:57:02.947Z,64.66
2022-11-09T08:59:30.773Z,64.21
2022-11-09T09:01:59.426Z,63.34
2022-11-09T09:04:27.563Z,62.97
2022-11-09T09:06:56.811Z,62.40
2022-11-09T09:09:24.713Z,62.54
2022-11-09T09:11:52.450Z,62.06
2022-11-09T09:14:20.244Z,61.32
2022-11-09T09:16:48.578Z,60.19
2022-11-09T09:19:16.498Z,60.18
2022-11-09T09:21:44.713Z,59.73
2022-11-09T09:24:13.830Z,59.92
2022-11-09T09:26:41.586Z,59.21
2022-11-09T09:29:11.651Z,59.95
2022-11-09T09:31:39.425Z,59.21
2022-11-09T09:34:07.323Z,58.26
2022-11-09T09:36:35.482Z,57.09
2022-11-09T09:39:03.255Z,56.44
2022-11-09T09:41:39.620Z,56.02
2022-11-09T09:44:19.180Z,56.11
2022-11-09T09:46:50.009Z,54.94
2022-11-09T09:49:20.998Z,54.57
2022-11-09T09:51:52.508Z,54.37
2022-11-09T09:54:21.971Z,53.43
2022-11-09T09:56:52.479Z,52.42
2022-11-09T09:59:24.376Z,51.87
2022-11-09T10:01:52.462Z,51.75
2022-11-09T10:04:21.975Z,52.27
2022-11-09T10:07:01.070Z,52.83
2022-11-09T10:09:37.874Z,51.24
2022-11-09T10:12:17.398Z,51.31
2022-11-09T10:14:54.238Z,50.42
2022-11-09T10:17:28.426Z,50.53
2022-11-09T10:20:08.959Z,48.92
2022-11-09T10:22:45.736Z,49.56
2022-11-09T10:25:27.397Z,50.44
2022-11-09T10:28:04.961Z,50.27
2022-11-09T10:30:32.988Z,50.31
2022-11-09T10:33:04.822Z,49.91
2022-11-09T10:35:36.523Z,50.30
2022-11-09T10:38:04.257Z,51.10
2022-11-09T10:40:34.547Z,50.75
2022-11-09T10:43:24.369Z,50.37
2022-11-09T10:46:10.745Z,49.23
2022-11-09T10:48:57.206Z,49.62
2022-11-09T10:51:46.468Z,50.99
2022-11-09T10:54:35.172Z,51.49
2022-11-09T10:57:23.430Z,51.50
2022-11-09T11:00:17.540Z,51.89
2022-11-09T11:03:12.925Z,51.90
2022-11-09T11:06:00.944Z,52.69
2022-11-09T11:08:48.868Z,51.31
2022-11-09T11:11:37.378Z,50.93
2022-11-09T11:14:30.442Z,51.20
2022-11-09T11:17:25.910Z,51.03
2022-11-09T11:20:28.534Z,47.04
2022-11-09T11:23:18.279Z,43.27
2022-11-09T11:26:18.926Z,45.91
2022-11-09T11:29:10.224Z,38.59
2022-11-09T11:31:56.541Z,40.52
2022-11-09T11:34:59.803Z,40.29
2022-11-09T11:37:53.384Z,43.11
2022-11-09T11:40:45.130Z,42.61
2022-11-09T11:43:39.376Z,40.98
2022-11-09T11:46:30.201Z,40.03
2022-11-09T11:49:32.879Z,42.08
2022-11-09T11:52:25.871Z,42.21
2022-11-09T11:55:20.127Z,43.85
2022-11-09T11:58:19.287Z,40.04
2022-11-09T12:01:17.413Z,40.02
2022-11-09T12:04:15.242Z,40.15
2022-11-09T12:07:10.473Z,40.86
2022-11-09T12:10:11.289Z,39.77
2022-11-09T12:13:02.595Z,40.67
2022-11-09T12:15:54.826Z,40.83
2022-11-09T12:18:50.060Z,40.94
2022-11-09T12:21:41.037Z,39.54
2022-11-09T12:24:30.745Z,39.58
2022-11-09T12:27:37.386Z,41.06
2022-11-09T12:30:25.022Z,41.62
2022-11-09T12:33:16.742Z,41.68
2022-11-09T12:36:08.505Z,41.46
2022-11-09T12:39:00.148Z,40.63
2022-11-09T12:41:47.851Z,39.05
2022-11-09T12:44:39.171Z,37.72
2022-11-09T12:47:30.214Z,34.21
2022-11-09T12:50:19.223Z,34.04
2022-11-09T12:53:06.256Z,37.88
2022-11-09T12:55:55.216Z,41.72
2022-11-09T12:58:41.673Z,40.07
2022-11-09T13:01:47.186Z,43.20
2022-11-09T13:04:33.643Z,44.91
2022-11-09T13:07:30.812Z,45.20
2022-11-09T13:10:26.607Z,44.51
2022-11-09T13:13:25.214Z,46.81
2022-11-09T13:16:27.494Z,47.84
2022-11-09T13:19:52.426Z,47.42
2022-11-09T13:23:01.434Z,100.00
2022-11-09T13:25:51.178Z,100.00
2022-11-09T13:29:10.761Z,100.00
2022-11-09T13:32:06.685Z,100.00
2022-11-09T13:34:55.827Z,100.00
2022-11-09T13:37:54.393Z,100.00
2022-11-09T13:40:45.821Z,100.00
2022-11-09T13:43:33.077Z,100.00
2022-11-09T13:46:25.092Z,100.00
2022-11-09T13:49:40.356Z,100.00
2022-11-09T13:52:50.866Z,100.00
2022-11-09T13:55:38.395Z,100.00
2022-11-09T13:58:28.688Z,100.00
2022-11-09T14:01:26.404Z,100.00
2022-11-09T14:04:21.930Z,100.00
2022-11-09T14:07:13.675Z,100.00
2022-11-09T14:10:06.895Z,100.00
2022-11-09T14:13:05.227Z,100.00
2022-11-09T14:15:56.748Z,100.00
2022-11-09T14:18:49.416Z,100.00
2022-11-09T14:21:41.520Z,100.00
2022-11-09T14:24:30.789Z,100.00
2022-11-09T14:27:20.652Z,100.00
2022-11-09T14:30:16.320Z,100.00
2022-11-09T14:33:02.935Z,100.00
2022-11-09T14:35:49.866Z,100.00
2022-11-09T14:38:38.357Z,100.00
2022-11-09T14:41:26.785Z,100.00
2022-11-09T14:44:16.827Z,100.00
2022-11-09T14:47:04.009Z,100.00
2022-11-09T14:49:51.087Z,100.00
2022-11-09T14:52:37.918Z,100.00
2022-11-09T14:55:25.469Z,100.00
2022-11-09T14:58:13.933Z,100.00
2022-11-09T15:01:10.128Z,100.00
2022-11-09T15:04:16.864Z,100.00
2022-11-09T15:07:05.426Z,100.00
2022-11-09T15:09:53.905Z,100.00
2022-11-09T15:12:46.257Z,100.00
2022-11-09T15:15:34.429Z,100.00
2022-11-09T15:18:30.350Z,100.00
2022-11-09T15:21:21.830Z,100.00
2022-11-09T15:24:16.181Z,100.00
2022-11-09T15:27:02.533Z,100.00
2022-11-09T15:29:48.993Z,100.00
2022-11-09T15:32:40.320Z,100.00
2022-11-09T15:35:28.265Z,100.00
2022-11-09T15:38:31.268Z,100.00
2022-11-09T15:41:19.648Z,100.00
2022-11-09T15:44:06.790Z,100.00
2022-11-09T15:46:54.829Z,100.00
2022-11-09T15:49:41.755Z,100.00
2022-11-09T15:52:30.205Z,100.00
2022-11-09T15:55:18.717Z,100.00
2022-11-09T15:58:05.583Z,100.00
2022-11-09T16:00:51.795Z,100.00
2022-11-09T16:03:38.735Z,100.00
2022-11-09T16:06:27.037Z,100.00
2022-11-09T16:09:16.147Z,100.00
2022-11-09T16:12:03.234Z,100.00
2022-11-09T16:14:52.364Z,100.00
2022-11-09T16:17:39.440Z,100.00
2022-11-09T16:20:26.238Z,100.00
2022-11-09T16:23:13.007Z,100.00
2022-11-09T16:26:01.370Z,100.00
2022-11-09T16:28:48.175Z,100.00
2022-11-09T16:31:50.834Z,100.00
2022-11-09T16:34:38.559Z,100.00
2022-11-09T16:37:25.700Z,100.00
2022-11-09T16:40:14.929Z,100.00
2022-11-09T16:43:02.774Z,100.00
2022-11-09T16:45:50.998Z,100.00
2022-11-09T16:48:38.939Z,100.00
2022-11-09T16:51:26.291Z,100.00
2022-11-09T16:54:13.000Z,100.00
2022-11-09T16:56:59.268Z,100.00
2022-11-09T16:59:47.007Z,100.00
2022-11-09T17:02:33.718Z,100.00
2022-11-09T17:05:20.003Z,100.00
2022-11-09T17:08:07.461Z,100.00
2022-11-09T17:10:53.789Z,100.00
2022-11-09T17:13:40.639Z,100.00
2022-11-09T17:16:28.781Z,100.00
2022-11-09T17:19:15.540Z,100.00
2022-11-09T17:22:01.887Z,100.00
2022-11-09T17:24:48.089Z,100.00
2022-11-09T17:27:34.665Z,100.00
2022-11-09T17:30:21.628Z,100.00
2022-11-09T17:33:09.286Z,100.00
2022-11-09T17:36:02.616Z,100.00
2022-11-09T17:38:49.023Z,100.00
2022-11-09T17:41:39.958Z,100.00
2022-11-09T17:44:28.589Z,100.00
2022-11-09T17:47:14.973Z,100.00
2022-11-09T17:50:02.471Z,100.00
2022-11-09T17:52:48.652Z,100.00
2022-11-09T17:55:37.960Z,100.00
2022-11-09T17:58:24.516Z,100.00
2022-11-09T18:01:13.110Z,100.00
2022-11-09T18:04:01.875Z,100.00
2022-11-09T18:06:51.909Z,100.00
2022-11-09T18:09:42.500Z,100.00
2022-11-09T18:12:29.179Z,100.00
2022-11-09T18:15:15.965Z,100.00
2022-11-09T18:18:02.191Z,100.00
2022-11-09T18:20:48.742Z,100.00
2022-11-09T18:23:37.066Z,100.00
2022-11-09T18:26:23.870Z,100.00
2022-11-09T18:29:10.440Z,100.00
2022-11-09T18:31:57.403Z,100.00
2022-11-09T18:34:43.878Z,100.00
2022-11-09T18:37:30.274Z,100.00
2022-11-09T18:40:18.184Z,100.00
2022-11-09T18:43:04.273Z,100.00
2022-11-09T18:45:55.522Z,100.00
2022-11-09T18:48:42.176Z,100.00
2022-11-09T18:51:28.748Z,100.00
2022-11-09T18:54:14.988Z,100.00
2022-11-09T18:57:02.953Z,100.00
2022-11-09T18:59:49.152Z,100.00
2022-11-09T19:02:35.733Z,100.00
2022-11-09T19:05:21.885Z,100.00
2022-11-09T19:08:08.152Z,100.00
2022-11-09T19:10:54.770Z,100.00
2022-11-09T19:13:42.669Z,100.00
2022-11-09T19:16:29.744Z,100.00
2022-11-09T19:19:16.784Z,100.00
2022-11-09T19:22:03.525Z,100.00
2022-11-09T19:24:49.673Z,100.00
2022-11-09T19:27:36.127Z,100.00
2022-11-09T19:30:25.836Z,100.00
2022-11-09T19:33:12.623Z,100.00
2022-11-09T19:36:28.150Z,100.00
2022-11-09T19:39:05.880Z,100.00
2022-11-09T19:41:52.572Z,100.00
2022-11-09T19:44:38.746Z,100.00
2022-11-09T19:47:26.156Z,100.00
2022-11-09T19:50:12.554Z,100.00
2022-11-09T19:52:59.128Z,100.00
2022-11-09T19:55:45.855Z,100.00
2022-11-09T19:58:32.658Z,100.00
2022-11-09T20:01:19.936Z,100.00
2022-11-09T20:04:10.202Z,100.00
2022-11-09T20:06:56.968Z,100.00
2022-11-09T20:09:43.368Z,100.00
2022-11-09T20:12:47.315Z,100.00
2022-11-09T20:15:33.851Z,100.00
2022-11-09T20:18:20.584Z,100.00
2022-11-09T20:21:09.031Z,100.00
2022-11-09T20:23:55.599Z,100.00
2022-11-09T20:26:43.794Z,100.00
2022-11-09T20:29:30.227Z,100.00
2022-11-09T20:32:21.309Z,100.00
2022-11-09T20:35:09.676Z,100.00
2022-11-09T20:37:57.343Z,100.00
2022-11-09T20:40:43.968Z,100.00
2022-11-09T20:43:30.594Z,100.00
2022-11-09T20:46:19.401Z,100.00
2022-11-09T20:49:06.289Z,100.00
2022-11-09T20:51:52.681Z,100.00
2022-11-09T20:54:40.609Z,100.00
2022-11-09T20:57:26.947Z,100.00
2022-11-09T21:00:14.358Z,100.00
2022-11-09T21:03:01.009Z,100.00
2022-11-09T21:05:51.037Z,100.00
2022-11-09T21:08:39.805Z,100.00
2022-11-09T21:11:28.775Z,100.00
2022-11-09T21:14:15.399Z,100.00
2022-11-09T21:17:01.784Z,100.00
2022-11-09T21:19:48.442Z,100.00
2022-11-09T21:23:07.174Z,100.00
2022-11-09T21:26:10.796Z,100.00
2022-11-09T21:29:16.086Z,100.00
2022-11-09T21:32:03.035Z,100.00
2022-11-09T21:34:49.832Z,100.00
2022-11-09T21:37:36.204Z,100.00
2022-11-09T21:40:22.750Z,100.00
2022-11-09T21:43:09.226Z,100.00
2022-11-09T21:45:56.990Z,100.00
2022-11-09T21:48:43.443Z,100.00
2022-11-09T21:51:30.059Z,100.00
2022-11-09T21:54:16.415Z,100.00
2022-11-09T21:57:03.193Z,100.00
2022-11-09T21:59:49.554Z,100.00
2022-11-09T22:02:37.232Z,100.00
2022-11-09T22:05:23.523Z,100.00
2022-11-09T22:08:09.672Z,100.00
2022-11-09T22:11:04.482Z,100.00
2022-11-09T22:14:08.658Z,100.00
2022-11-09T22:16:54.974Z,100.00
2022-11-09T22:20:00.343Z,100.00
2022-11-09T22:22:46.954Z,100.00
2022-11-09T22:25:33.530Z,100.00
2022-11-09T22:28:20.117Z,100.00
2022-11-09T22:31:07.586Z,100.00
2022-11-09T22:33:54.100Z,100.00
2022-11-09T22:36:41.808Z,100.00
2022-11-09T22:39:28.037Z,100.00
2022-11-09T22:42:14.324Z,100.00
2022-11-09T22:45:00.773Z,100.00
2022-11-09T22:47:47.496Z,100.00
2022-11-09T22:50:33.650Z,100.00
2022-11-09T22:53:21.594Z,100.00
2022-11-09T22:56:08.730Z,100.00
2022-11-09T22:58:55.266Z,100.00
2022-11-09T23:01:41.741Z,100.00
2022-11-09T23:04:28.114Z,100.00
2022-11-09T23:07:14.453Z,100.00
2022-11-09T23:10:02.304Z,100.00
2022-11-09T23:12:48.504Z,100.00
2022-11-09T23:15:34.963Z,100.00
2022-11-09T23:18:38.660Z,100.00
2022-11-09T23:21:27.488Z,100.00
2022-11-09T23:24:36.617Z,100.00
2022-11-09T23:27:24.313Z,100.00
2022-11-09T23:30:11.689Z,100.00
2022-11-09T23:33:01.201Z,100.00
2022-11-09T23:35:47.693Z,100.00
2022-11-09T23:38:34.809Z,100.00
2022-11-09T23:41:21.698Z,100.00
2022-11-09T23:44:09.708Z,100.00
2022-11-09T23:46:56.225Z,100.00
2022-11-09T23:49:42.774Z,100.00
2022-11-09T23:52:29.181Z,100.00
2022-11-09T23:55:16.307Z,100.00
2022-11-09T23:58:03.303Z,100.00
